createdAt,value
2022-11-16T00:02:52.825Z,8.03
2022-11-16T00:06:02.433Z,7.99
2022-11-16T00:09:04.266Z,7.94
2022-11-16T00:12:07.564Z,7.92
2022-11-16T00:15:08.867Z,7.73
2022-11-16T00:18:10.194Z,7.82
2022-11-16T00:21:11.592Z,7.85
2022-11-16T00:24:15.324Z,7.86
2022-11-16T00:27:16.684Z,7.89
2022-11-16T00:30:18.154Z,7.89
2022-11-16T00:33:20.334Z,7.85
2022-11-16T00:36:21.783Z,7.81
2022-11-16T00:39:24.092Z,7.80
2022-11-16T00:42:25.448Z,7.77
2022-11-16T00:45:26.920Z,7.75
2022-11-16T00:48:28.606Z,7.75
2022-11-16T00:51:29.967Z,7.72
2022-11-16T00:54:32.077Z,7.71
2022-11-16T00:57:34.055Z,7.71
2022-11-16T01:00:35.464Z,7.70
2022-11-16T01:03:38.154Z,7.69
2022-11-16T01:06:39.537Z,7.68
2022-11-16T01:09:41.350Z,7.67
2022-11-16T01:12:45.972Z,7.65
2022-11-16T01:15:48.948Z,7.63
2022-11-16T01:18:52.496Z,7.60
2022-11-16T01:21:53.843Z,7.56
2022-11-16T01:24:55.213Z,7.54
2022-11-16T01:27:56.605Z,7.49
2022-11-16T01:31:06.284Z,7.45
2022-11-16T01:34:10.548Z,7.42
2022-11-16T01:37:12.120Z,7.40
2022-11-16T01:40:16.577Z,7.39
2022-11-16T01:43:23.178Z,7.38
2022-11-16T01:46:26.534Z,7.35
2022-11-16T01:49:34.841Z,7.30
2022-11-16T01:52:40.075Z,7.28
2022-11-16T01:55:44.447Z,7.28
2022-11-16T01:59:09.202Z,7.25
2022-11-16T02:02:10.581Z,7.24
2022-11-16T02:05:16.667Z,7.24
2022-11-16T02:08:59.819Z,7.23
2022-11-16T02:12:16.085Z,7.17
2022-11-16T02:15:50.201Z,7.13
2022-11-16T02:19:07.476Z,7.13
2022-11-16T02:22:50.450Z,7.08
2022-11-16T02:26:30.899Z,7.04
2022-11-16T02:29:45.503Z,7.05
2022-11-16T02:32:53.476Z,7.02
2022-11-16T02:35:58.957Z,7.01
2022-11-16T02:39:10.258Z,6.97
2022-11-16T02:42:17.114Z,6.95
2022-11-16T02:45:23.770Z,6.93
2022-11-16T02:48:31.042Z,6.90
2022-11-16T02:51:35.957Z,6.84
2022-11-16T02:54:37.448Z,6.81
2022-11-16T02:57:49.131Z,6.76
2022-11-16T03:01:19.102Z,6.73
2022-11-16T03:04:35.423Z,6.69
2022-11-16T03:07:52.065Z,6.70
2022-11-16T03:10:58.254Z,6.72
2022-11-16T03:14:09.392Z,6.70
2022-11-16T03:17:37.270Z,6.61
2022-11-16T03:20:39.451Z,6.58
2022-11-16T03:23:40.984Z,6.58
2022-11-16T03:26:54.558Z,6.56
2022-11-16T03:29:58.938Z,6.40
2022-11-16T03:33:06.607Z,6.48
2022-11-16T03:36:23.255Z,6.47
2022-11-16T03:39:36.792Z,6.48
2022-11-16T03:42:41.836Z,6.46
2022-11-16T03:45:45.787Z,6.47
2022-11-16T03:48:47.304Z,6.46
2022-11-16T03:51:58.176Z,6.45
2022-11-16T03:54:59.661Z,6.46
2022-11-16T03:58:01.488Z,6.46
2022-11-16T04:01:03.031Z,6.43
2022-11-16T04:04:05.365Z,6.39
2022-11-16T04:07:08.444Z,6.40
2022-11-16T04:10:11.048Z,6.35
2022-11-16T04:13:15.540Z,6.36
2022-11-16T04:16:18.066Z,6.36
2022-11-16T04:19:20.168Z,6.34
2022-11-16T04:22:26.446Z,6.32
2022-11-16T04:25:34.311Z,6.32
2022-11-16T04:28:36.694Z,6.30
2022-11-16T04:31:40.147Z,6.27
2022-11-16T04:34:46.845Z,6.25
2022-11-16T04:37:48.790Z,6.25
2022-11-16T04:40:54.174Z,6.23
2022-11-16T04:43:57.911Z,6.23
2022-11-16T04:46:59.480Z,6.22
2022-11-16T04:50:01.507Z,6.21
2022-11-16T04:53:04.506Z,6.21
2022-11-16T04:56:10.847Z,6.20
2022-11-16T04:59:13.320Z,6.19
2022-11-16T05:02:14.895Z,6.17
2022-11-16T05:05:26.504Z,6.18
2022-11-16T05:08:27.996Z,6.19
2022-11-16T05:11:30.496Z,6.16
2022-11-16T05:14:33.521Z,6.13
2022-11-16T05:17:35.623Z,6.18
2022-11-16T05:20:40.078Z,6.19
2022-11-16T05:23:42.729Z,6.19
2022-11-16T05:26:47.561Z,6.22
2022-11-16T05:29:49.324Z,6.19
2022-11-16T05:32:53.265Z,6.15
2022-11-16T05:35:56.174Z,6.16
2022-11-16T05:38:57.674Z,6.14
2022-11-16T05:42:02.443Z,6.13
2022-11-16T05:45:04.478Z,6.13
2022-11-16T05:48:05.899Z,6.12
2022-11-16T05:51:07.353Z,6.12
2022-11-16T05:54:12.659Z,6.15
2022-11-16T05:57:14.419Z,6.10
2022-11-16T06:00:16.567Z,6.10
2022-11-16T06:03:22.280Z,6.06
2022-11-16T06:06:23.752Z,6.05
2022-11-16T06:09:26.563Z,6.01
2022-11-16T06:12:29.641Z,6.03
2022-11-16T06:15:31.168Z,6.01
2022-11-16T06:18:37.710Z,5.99
2022-11-16T06:21:39.456Z,5.99
2022-11-16T06:24:47.467Z,5.96
2022-11-16T06:27:49.019Z,5.92
2022-11-16T06:30:52.657Z,5.89
2022-11-16T06:33:54.134Z,5.84
2022-11-16T06:37:00.082Z,5.81
2022-11-16T06:40:01.629Z,5.82
2022-11-16T06:43:07.745Z,5.75
2022-11-16T06:46:09.243Z,5.74
2022-11-16T06:49:12.996Z,5.74
2022-11-16T06:52:14.490Z,5.75
2022-11-16T06:55:16.859Z,5.74
2022-11-16T06:58:18.310Z,5.71
2022-11-16T07:01:20.574Z,5.68
2022-11-16T07:04:23.806Z,5.54
2022-11-16T07:07:29.744Z,5.60
2022-11-16T07:10:32.038Z,5.60
2022-11-16T07:13:34.548Z,5.58
2022-11-16T07:16:36.035Z,5.59
2022-11-16T07:19:38.220Z,5.63
2022-11-16T07:22:40.863Z,5.59
2022-11-16T07:25:46.676Z,5.59
2022-11-16T07:28:50.413Z,5.61
2022-11-16T07:31:55.528Z,5.63
2022-11-16T07:35:15.334Z,5.59
2022-11-16T07:38:18.235Z,5.57
2022-11-16T07:41:20.340Z,5.57
2022-11-16T07:44:34.824Z,5.59
2022-11-16T07:47:40.787Z,5.61
2022-11-16T07:50:47.453Z,5.60
2022-11-16T07:53:53.675Z,5.62
2022-11-16T07:56:55.107Z,5.62
2022-11-16T07:59:57.040Z,5.63
2022-11-16T08:02:58.419Z,5.68
2022-11-16T08:06:03.776Z,5.67
2022-11-16T08:09:05.221Z,5.68
2022-11-16T08:12:08.609Z,5.56
2022-11-16T08:15:10.482Z,5.66
2022-11-16T08:18:12.660Z,5.66
2022-11-16T08:21:15.930Z,5.68
2022-11-16T08:24:18.637Z,5.69
2022-11-16T08:27:20.925Z,5.70
2022-11-16T08:30:26.808Z,5.70
2022-11-16T08:33:29.034Z,5.74
2022-11-16T08:36:30.585Z,5.74
2022-11-16T08:39:32.759Z,5.74
2022-11-16T08:42:35.620Z,5.74
2022-11-16T08:45:39.299Z,5.75
2022-11-16T08:48:41.502Z,5.73
2022-11-16T08:51:43.726Z,5.75
2022-11-16T08:54:45.102Z,5.75
2022-11-16T08:57:46.602Z,5.73
2022-11-16T09:00:51.838Z,5.75
2022-11-16T09:03:53.463Z,5.75
2022-11-16T09:06:54.921Z,5.74
2022-11-16T09:09:56.536Z,5.73
2022-11-16T09:12:57.875Z,5.72
2022-11-16T09:16:00.335Z,5.73
2022-11-16T09:19:01.797Z,5.69
2022-11-16T09:22:03.820Z,5.69
2022-11-16T09:25:05.741Z,5.71
2022-11-16T09:28:07.161Z,5.71
2022-11-16T09:31:08.584Z,5.67
2022-11-16T09:34:09.922Z,5.66
2022-11-16T09:37:11.416Z,5.61
2022-11-16T09:40:12.788Z,5.61
2022-11-16T09:43:45.917Z,5.57
2022-11-16T09:46:56.916Z,5.59
2022-11-16T09:50:04.051Z,5.61
2022-11-16T09:53:32.759Z,5.57
2022-11-16T09:56:38.821Z,5.57
2022-11-16T10:00:11.258Z,5.53
2022-11-16T10:03:15.050Z,5.52
2022-11-16T10:06:22.650Z,5.56
2022-11-16T10:09:24.948Z,5.57
2022-11-16T10:12:40.589Z,5.55
2022-11-16T10:16:08.797Z,5.59
2022-11-16T10:19:42.435Z,5.55
2022-11-16T10:23:09.483Z,5.51
2022-11-16T10:26:26.403Z,5.54
2022-11-16T10:29:51.707Z,5.54
2022-11-16T10:32:57.986Z,5.55
2022-11-16T10:35:59.346Z,5.56
2022-11-16T10:39:00.995Z,5.61
2022-11-16T10:42:09.863Z,5.60
2022-11-16T10:45:11.211Z,5.59
2022-11-16T10:48:16.990Z,5.63
2022-11-16T10:51:18.444Z,5.62
2022-11-16T10:54:19.860Z,5.58
2022-11-16T10:57:21.340Z,5.59
2022-11-16T11:00:36.848Z,5.57
2022-11-16T11:03:38.312Z,5.55
2022-11-16T11:06:39.933Z,5.55
2022-11-16T11:09:41.369Z,5.55
2022-11-16T11:13:02.551Z,5.56
2022-11-16T11:16:17.191Z,5.56
2022-11-16T11:19:28.771Z,5.56
2022-11-16T11:22:32.717Z,5.60
2022-11-16T11:25:50.870Z,5.65
2022-11-16T11:28:52.320Z,5.62
2022-11-16T11:32:24.082Z,5.59
2022-11-16T11:35:32.222Z,5.64
2022-11-16T11:38:35.061Z,5.61
2022-11-16T11:41:47.038Z,5.65
2022-11-16T11:45:09.039Z,5.66
2022-11-16T11:48:18.965Z,5.71
2022-11-16T11:51:33.594Z,5.71
2022-11-16T11:54:46.069Z,5.74
2022-11-16T11:57:50.574Z,5.76
2022-11-16T12:01:22.183Z,5.76
2022-11-16T12:04:38.009Z,5.82
2022-11-16T12:08:16.947Z,5.79
2022-11-16T12:11:36.619Z,5.84
2022-11-16T12:15:03.987Z,5.88
2022-11-16T12:18:33.154Z,5.92
2022-11-16T12:22:25.563Z,5.87
2022-11-16T12:25:41.402Z,5.88
2022-11-16T12:28:50.861Z,5.90
2022-11-16T12:32:28.597Z,5.92
2022-11-16T12:36:17.656Z,5.95
2022-11-16T12:39:42.985Z,5.95
2022-11-16T12:42:47.377Z,6.00
2022-11-16T12:46:06.348Z,6.00
2022-11-16T12:49:41.743Z,6.00
2022-11-16T12:52:56.792Z,6.02
2022-11-16T12:56:11.008Z,6.04
2022-11-16T12:59:35.281Z,6.07
2022-11-16T13:02:59.365Z,6.08
2022-11-16T13:06:06.721Z,6.11
2022-11-16T13:09:16.122Z,6.13
2022-11-16T13:12:22.164Z,6.17
2022-11-16T13:15:32.290Z,6.20
2022-11-16T13:18:35.670Z,6.23
2022-11-16T13:21:48.411Z,6.07
2022-11-16T13:25:11.424Z,6.15
2022-11-16T13:28:18.170Z,6.17
2022-11-16T13:31:28.657Z,6.19
2022-11-16T13:34:33.742Z,6.18
2022-11-16T13:37:38.104Z,6.18
2022-11-16T13:40:40.383Z,6.20
2022-11-16T13:43:48.692Z,6.21
2022-11-16T13:46:56.335Z,6.20
2022-11-16T13:50:01.900Z,6.14
2022-11-16T13:56:51.334Z,6.11
2022-11-16T14:00:08.012Z,6.11
2022-11-16T14:03:15.361Z,6.13
2022-11-16T14:06:19.719Z,6.11
2022-11-16T14:09:43.771Z,6.08
2022-11-16T14:12:52.730Z,6.09
2022-11-16T14:16:18.899Z,6.06
2022-11-16T14:19:45.084Z,6.05
2022-11-16T14:23:14.335Z,6.04
2022-11-16T14:26:18.560Z,6.03
2022-11-16T14:29:41.724Z,6.05
2022-11-16T14:32:46.297Z,6.03
2022-11-16T14:35:51.768Z,6.05
2022-11-16T14:38:53.159Z,6.07
2022-11-16T14:41:58.910Z,6.07
2022-11-16T14:45:02.370Z,6.09
2022-11-16T14:48:05.672Z,5.94
2022-11-16T14:51:14.840Z,5.94
2022-11-16T14:54:22.528Z,5.93
2022-11-16T14:57:24.053Z,5.90
2022-11-16T15:00:25.470Z,5.84
2022-11-16T15:03:33.520Z,5.84
2022-11-16T15:06:43.417Z,5.79
2022-11-16T15:09:49.086Z,5.76
2022-11-16T15:12:52.532Z,5.75
2022-11-16T15:16:12.336Z,5.62
2022-11-16T15:19:13.665Z,5.67
2022-11-16T15:22:17.532Z,5.71
2022-11-16T15:25:39.990Z,5.72
2022-11-16T15:28:45.789Z,5.72
2022-11-16T15:31:50.780Z,5.72
2022-11-16T15:34:54.316Z,5.72
2022-11-16T15:38:11.940Z,5.71
2022-11-16T15:41:17.977Z,5.69
2022-11-16T15:44:22.312Z,5.69
2022-11-16T15:47:24.180Z,5.69
2022-11-16T15:50:26.004Z,5.70
2022-11-16T15:53:39.820Z,5.69
2022-11-16T15:56:41.595Z,5.66
2022-11-16T15:59:48.539Z,5.67
2022-11-16T16:02:51.119Z,5.67
2022-11-16T16:05:54.083Z,5.67
2022-11-16T16:09:06.203Z,5.62
2022-11-16T16:12:20.784Z,5.59
2022-11-16T16:15:28.549Z,5.61
2022-11-16T16:18:29.905Z,5.60
2022-11-16T16:21:45.767Z,5.62
2022-11-16T16:24:47.157Z,5.61
2022-11-16T16:27:48.500Z,5.61
2022-11-16T16:30:52.850Z,5.61
2022-11-16T16:33:54.196Z,5.64
2022-11-16T16:36:55.521Z,5.60
2022-11-16T16:39:57.566Z,5.59
2022-11-16T16:42:58.884Z,5.60
2022-11-16T16:46:01.348Z,5.59
2022-11-16T16:49:02.666Z,5.56
2022-11-16T16:52:05.166Z,5.54
2022-11-16T16:55:06.787Z,5.52
2022-11-16T16:58:11.882Z,5.55
2022-11-16T17:01:13.295Z,5.53
2022-11-16T17:04:14.784Z,5.48
2022-11-16T17:07:16.466Z,5.45
2022-11-16T17:10:17.935Z,5.44
2022-11-16T17:13:19.267Z,5.43
2022-11-16T17:16:20.630Z,5.41
2022-11-16T17:19:22.095Z,5.38
2022-11-16T17:22:23.439Z,5.35
2022-11-16T17:25:24.757Z,5.33
2022-11-16T17:28:26.101Z,5.25
2022-11-16T17:31:27.421Z,5.23
2022-11-16T17:34:28.799Z,5.20
2022-11-16T17:37:30.138Z,5.20
2022-11-16T17:40:31.569Z,5.20
2022-11-16T17:43:33.333Z,5.17
2022-11-16T17:46:35.214Z,5.16
2022-11-16T17:49:36.529Z,5.14
2022-11-16T17:52:37.830Z,5.14
2022-11-16T17:55:39.155Z,5.13
2022-11-16T17:58:40.846Z,5.10
2022-11-16T18:01:42.268Z,5.10
2022-11-16T18:04:48.136Z,5.09
2022-11-16T18:07:52.159Z,5.09
2022-11-16T18:10:53.494Z,5.09
2022-11-16T18:13:57.951Z,5.09
2022-11-16T18:16:59.286Z,5.08
2022-11-16T18:20:00.623Z,5.06
2022-11-16T18:23:01.996Z,5.08
2022-11-16T18:26:07.991Z,5.10
2022-11-16T18:29:09.860Z,5.09
2022-11-16T18:32:11.185Z,5.08
2022-11-16T18:35:12.515Z,5.05
2022-11-16T18:38:13.874Z,5.02
2022-11-16T18:41:18.224Z,5.00
2022-11-16T18:44:19.599Z,4.98
2022-11-16T18:47:20.947Z,4.94
2022-11-16T18:50:26.697Z,4.93
2022-11-16T18:53:33.340Z,4.93
2022-11-16T18:56:34.987Z,4.92
2022-11-16T18:59:36.462Z,4.93
2022-11-16T19:02:37.875Z,4.95
2022-11-16T19:05:40.680Z,4.95
2022-11-16T19:08:44.084Z,4.99
2022-11-16T19:11:46.031Z,5.00
2022-11-16T19:14:47.365Z,4.95
2022-11-16T19:18:14.732Z,4.97
2022-11-16T19:21:12.385Z,4.95
2022-11-16T19:24:13.733Z,4.96
2022-11-16T19:27:15.122Z,4.95
2022-11-16T19:30:16.958Z,4.95
2022-11-16T19:33:18.305Z,4.95
2022-11-16T19:36:19.665Z,4.93
2022-11-16T19:39:21.025Z,4.90
2022-11-16T19:42:22.344Z,4.90
2022-11-16T19:45:23.709Z,4.87
2022-11-16T19:48:25.070Z,4.85
2022-11-16T19:51:29.293Z,4.83
2022-11-16T19:54:30.692Z,4.81
2022-11-16T19:57:32.060Z,4.82
2022-11-16T20:00:33.418Z,4.79
2022-11-16T20:03:35.465Z,4.80
2022-11-16T20:06:38.419Z,4.77
2022-11-16T20:09:39.761Z,4.75
2022-11-16T20:12:41.108Z,4.73
2022-11-16T20:15:42.466Z,4.73
2022-11-16T20:18:44.965Z,4.74
2022-11-16T20:21:46.517Z,4.73
2022-11-16T20:24:47.930Z,4.72
2022-11-16T20:27:49.339Z,4.71
2022-11-16T20:30:50.754Z,4.70
2022-11-16T20:33:57.230Z,4.69
2022-11-16T20:36:58.649Z,4.65
2022-11-16T20:39:59.994Z,4.66
2022-11-16T20:43:01.362Z,4.66
2022-11-16T20:46:02.683Z,4.65
2022-11-16T20:49:04.138Z,4.64
2022-11-16T20:52:05.615Z,4.64
2022-11-16T20:55:07.211Z,4.64
2022-11-16T20:58:08.560Z,4.65
2022-11-16T21:01:21.661Z,4.63
2022-11-16T21:04:23.134Z,4.63
2022-11-16T21:07:24.583Z,4.60
2022-11-16T21:10:26.242Z,4.64
2022-11-16T21:13:27.600Z,4.64
2022-11-16T21:16:29.003Z,4.67
2022-11-16T21:19:30.351Z,4.68
2022-11-16T21:22:32.748Z,4.67
2022-11-16T21:25:34.242Z,4.62
2022-11-16T21:28:35.635Z,4.57
2022-11-16T21:31:37.060Z,4.51
2022-11-16T21:34:40.240Z,4.47
2022-11-16T21:37:41.738Z,4.34
2022-11-16T21:40:43.897Z,4.40
2022-11-16T21:43:45.660Z,4.39
2022-11-16T21:46:46.979Z,4.37
2022-11-16T21:50:16.731Z,4.35
2022-11-16T21:53:09.989Z,4.34
2022-11-16T21:56:16.382Z,4.31
2022-11-16T21:59:17.729Z,4.31
2022-11-16T22:02:19.113Z,4.29
2022-11-16T22:05:20.632Z,4.29
2022-11-16T22:08:21.978Z,4.25
2022-11-16T22:11:23.382Z,4.28
2022-11-16T22:14:24.722Z,4.24
2022-11-16T22:17:26.232Z,4.20
2022-11-16T22:20:27.551Z,4.20
2022-11-16T22:23:29.478Z,4.22
2022-11-16T22:26:30.894Z,4.20
2022-11-16T22:29:32.263Z,4.20
2022-11-16T22:32:33.640Z,4.21
2022-11-16T22:35:37.200Z,4.21
2022-11-16T22:38:38.571Z,4.22
2022-11-16T22:41:39.904Z,4.21
2022-11-16T22:44:41.224Z,4.22
2022-11-16T22:47:42.629Z,4.24
2022-11-16T22:50:44.560Z,4.25
2022-11-16T22:53:46.218Z,4.27
2022-11-16T22:56:47.592Z,4.25
2022-11-16T22:59:48.933Z,4.29
2022-11-16T23:02:51.709Z,4.28
2022-11-16T23:05:53.045Z,4.24
2022-11-16T23:08:54.448Z,4.24
2022-11-16T23:11:55.810Z,4.26
2022-11-16T23:14:57.138Z,4.25
2022-11-16T23:17:58.466Z,4.25
2022-11-16T23:20:59.814Z,4.22
2022-11-16T23:24:01.223Z,4.24
2022-11-16T23:27:03.595Z,4.23
2022-11-16T23:30:12.191Z,4.22
2022-11-16T23:33:14.327Z,4.21
2022-11-16T23:36:15.739Z,4.21
2022-11-16T23:39:17.144Z,4.20
2022-11-16T23:42:18.503Z,4.24
2022-11-16T23:45:19.836Z,4.20
2022-11-16T23:48:21.181Z,4.17
2022-11-16T23:51:23.227Z,4.19
2022-11-16T23:54:24.588Z,4.13
2022-11-16T23:57:25.904Z,4.05
